Acme, Washington
Current Conditions -  °F | °C
As of 8:53 PM on Thursday 30 Oct 2014 (Local Time) from KBLI Reporting Station
Light Rain Light Rain  
Wind Chill: 56°   Ceiling: 4300
Heat Index: 56°   Visibility: 10mi
Dew Point: 52°   Wind: 7mph
Humidity: 87%   Direction: 170°S
Pressure: 29.74"   Gusts: NA
Location:  48.72°N, 122.21°W
Report Text: KBLI 310353Z 17006KT 10SM -RA OVC043 13/11 A2974 RMK AO2 SLP077 P0003 T01330111
Loading
Personal Weather Stations






























Interactive Weather Map
Tropical Storm Tracking
New forecast layout! Learn more

10-Day Weather Forecast

Advertisements
Track Severe Weather on mobile